Timeline UpdatesTrip UpdatesNews PostsPvt PostsTravel TipsAdmin PostsConv PostsFollowed PostsChat RequestsBlog PostsPNR Posts

Disclaimer
Search
 
 
Wed Apr 16, 2014 09:49:34 ISTHomeTrainsΣChainsAtlasPNRForumGalleryNewsFAQTripsMembersLoginFeedback
No Recent News for this Train
Other Trains in the News **new
Latest...
** Train will run via Chandrapura - Gomoh - Dhanbad route from 14th - 20th April 2013 **
Wed Apr 10, 2013 (08:27AM)
⇐ Return Journey: Train# 18622

18621/Patliputra Express

Jul 01 2013 (4:13PM)
Change Departure Station:
Change Arrival Station:
Post a Train Travel TipPost a Train Travel Tip **new
Post a Comment/Question/Picture/VideoPost a Comment/Question/Picture/Video
Pantry/Catering
✕ NO Pantry Car
✓ Catering Avbl
RSA - Rake Sharing
Rake/Coach Composition
ENG-1; SLR-2; 2ac-1; 3ac-1; SL -3; UR-7; total_15 coaches.; Entry# 195735; Author: Nitish Kumar
Loco
MGS#WAM 4/4P
News    PNR    Forum    Time-Table    Availability    Fare Chart    Map    Arr/Dep History    Trips    Gallery    ΣChains    X/O    Timeline    
Travel Time: 1h 29m    7 halts    Distance: 74 km    Avg Speed: 49 km/hr
Type: Mail/Express
Zone: SER/South Eastern
Departs @ 15:25 (Avg 6m late)
Platform# 5
SMTWTFS
Patna Junction/PNBE 
Arrives @ 16:54 (Avg 40m late)
Platform# ???
SMTWTFS
Punarakh/PHK 

7 halts. 21 intermediate Stations between Patna Junction and Punarakh

Show ALL intermediate Stations  Show Old Time-Table

#CodeStation NameX/OArrivesAvgDepartsAvgHaltPFDay#KmSpeedElevZoneAddress
1PNBE»Patna Junction (10)»  -15:25+6510.02257mECRPatna 800001, Bihar
2RJPBRajendra Nagar Bihar (4)X  15:32+1115:34+132m--12.64455mECRPatna 800001, Bihar
3PNCPatna Saheb (3)  15:44+1715:45+191m--19.96759mECRPatna, Bihar
4FUTFatwa (6)  15:56+2215:57+271m--122.15653mECRPatna, Bihar
5KOOKhusropur (2)X  16:06+2716:07+281m--130.66252mECRPatna, Bihar
6BKPBakhtiyarpur Junction (5)O  16:21+3416:23+342m--145.17851mECRPatna, Bihar
7ATLAthmal Gola (2)  16:30+3616:31+371m--154.26952mECRPatna, Bihar
8BARHBarh (3)X  16:39+3916:40+411m--163.44449mECRBarh, Bihar
9PHK•Punarakh•  16:54+4016:55+401m--173.76251mECRPunarakh, Bihar
10MORMor  17:03+4117:04+421m--182.05446mECRMor, Bihar
11MKAMokama Junction (3)X  17:12+4317:14+432m--189.36348mECRPatna, Bihar
12HTZHathidah Junction (2)  17:22+4517:23+461m1197.63850mECRMusahari, Bihar
13RDUMRampur DumraXO  17:29+4717:30+491m--1101.45646mECRNational Highway 80, Bihar
14BRYABarhiya  17:36+5017:37+511m--1107.04347mECRBarahiya, Bihar
15DMRXDumri Halt (1)  17:43+4917:44+501m11111.32649mECRNational Highway 80, Bihar
16MKBMankathaX  17:56+4917:57+511m--1116.53047mECRNational Highway 80, Bihar
17LKRLuckeesarai Junction (2)  18:08+4718:09+481m--1122.1852mECRLakhisarai, Bihar
18KIULKiul Junction (5)X  18:19+4518:21+452m--1123.53353mECRDist. Lakhisarai, Bihar
19BSQPBansipurO  18:29+4718:30+481m--1127.82253mECRKiul, Bihar
20MNPMananpur (2)XO  18:37+4918:38+501m--1130.41757mECRState Highway 18, Bihar
21BFMBhalui  18:47+4918:48+491m--1133.011856mECRState Highway 18, Bihar
22JMUJamui (3)O  18:57+4918:58+511m--1150.82281mECRState Highway 72, Bihar
23CUXChauraXO  19:05+5319:06+531m--1153.4-79mECRState Highway 18, Bihar
24GHRGidhaur (2)XO  19:10+5619:11+571m--1165.113106mECRState Highway 18, Bihar
25JAJJhajha (4)  20:05+2220:10+245m--1176.870143mECRJhajha, Bihar
26STLSimultala (2)  20:26+3520:27+351m--1195.459247mERSimultala, Bihar
27JSMEJasidih Junction (5)X  20:53+3920:55+402m--1220.975271mERJasidih, Jharkhand
28SNQSankarpurX  21:04+4421:05+441m--1232.137242mERDeoghar, Jharkhand
29MUWMathurapur (2)21:15+4421:16+441m--1238.354261mERDeoghar, Jharkhand
30MDPMadhupur Junction (4)  21:29+4521:31+452m--1250.073254mER06432-224478, Jharkhand
31VDSVidyasagar (2)X  21:51+4621:52+481m21274.160250mERJamtara, Jharkhand
32JMTJamtara (2)X  22:10+4622:11+471m21292.050201mERJamtara, Jharkhand
33CRJChittaranjan (3)  22:28+4322:29+441m21306.438182mERMihijam, Jharkhand
34ULTKulti (3)  22:59+4623:00+471m--1325.133148mERdist - bardhaman, West Bengal
35BRRBarakar (2)  23:06+4723:07+471m--1328.425129mERDist. Bardhaman, West Bengal
36KMMEKumardubi (2)XO  23:13+4723:14+471m--1330.944135mERDhanbad - 828203(06540-222077), Jharkhand
37DHNDhanbad Junction (8)  00:07+4200:17+4110m--2369.430235mECR2319801. Div. HQ ECR, Jharkhand
38KTHKatrasgarh (1)  00:45+4200:48+413m12383.133198mECRKatrasgarh, Jharkhand
39CRPChandrapura Junction (2)  01:25+4101:27+412m--2403.633227mECR06549-242555, Jharkhand
40BKSCBokaro Steel City (3)X  01:55+4402:05+3910m22419.261245mSER06542-253861, Jharkhand
41JAAJhalida (3)  02:44+4402:45+451m--2459.130297mSERJhalida, West Bengal
42MURIMuri Junction (3)  03:10+4003:15+405m22471.451257mSER06522-222444, Jharkhand
43NKMNamkom (3)  04:21+4004:22+411m--2527.319618mSERRanchi, Jharkhand
44RNCRanchi Junction (6)  04:35+3604:45+3510m22531.521632mSERDiv HQ SER, Jharkhand
45HTEHatia (3)X  05:05+32---2538.5-657mSER2788599, Jharkhand
Scroll to Top
Scroll to Bottom